Time;durP1;ratioP1;P1;durP2;ratioP2;P2;SDS_P1;SDS_P2;PMS_P1;PMS_P2;Temp;Humidity;BMP_temperature;BMP_pressure;BME280_temperature;BME280_humidity;BME280_pressure;Samples;Min_cycle;Max_cycle;Signal;HPM_P1;HPM_P2
2023/01/31 00:01:13;;;;;;;15.57;2.90;;;4.80;99.90;;;;;;5023410;28;20081;-83
2023/01/31 00:03:41;;;;;;;22.48;3.65;;;4.70;99.90;;;;;;5024938;28;20567;-82
2023/01/31 00:06:37;;;;;;;16.50;2.80;;;4.50;99.90;;;;;;5017171;28;20063;-82
2023/01/31 00:09:04;;;;;;;19.25;2.63;;;4.70;99.90;;;;;;5018838;28;20055;-83
2023/01/31 00:11:31;;;;;;;13.15;3.10;;;4.80;99.90;;;;;;5017251;28;20170;-82
2023/01/31 00:13:58;;;;;;;16.55;3.28;;;4.70;99.90;;;;;;5025488;28;20159;-82
2023/01/31 00:16:25;;;;;;;17.13;3.10;;;4.70;99.90;;;;;;5023996;28;20057;-82
2023/01/31 00:18:51;;;;;;;14.10;2.53;;;4.70;99.90;;;;;;5024192;28;20044;-82
2023/01/31 00:21:22;;;;;;;19.27;2.42;;;4.70;99.90;;;;;;5025196;28;20111;-82
2023/01/31 00:23:49;;;;;;;15.13;2.60;;;4.80;99.90;;;;;;5035569;28;20055;-82
2023/01/31 00:26:17;;;;;;;18.08;2.80;;;4.80;99.90;;;;;;5025392;28;20040;-82
2023/01/31 00:28:43;;;;;;;14.15;2.80;;;4.80;99.90;;;;;;5033982;28;20049;-82
2023/01/31 00:31:11;;;;;;;20.70;3.33;;;4.80;99.90;;;;;;5050976;28;20124;-82
2023/01/31 00:33:39;;;;;;;10.40;2.58;;;4.90;99.90;;;;;;5026778;28;20053;-82
2023/01/31 00:36:07;;;;;;;21.55;2.92;;;4.90;99.90;;;;;;5019380;28;20426;-82
2023/01/31 00:38:34;;;;;;;15.75;2.50;;;4.80;99.90;;;;;;5036443;28;20080;-82
2023/01/31 00:41:00;;;;;;;16.08;2.88;;;4.90;99.90;;;;;;5021963;28;20098;-82
2023/01/31 00:43:26;;;;;;;20.70;3.42;;;4.90;99.90;;;;;;5024686;28;20120;-83
2023/01/31 00:45:52;;;;;;;15.85;2.80;;;4.90;99.90;;;;;;5025283;28;20037;-82
2023/01/31 00:48:18;;;;;;;17.80;3.38;;;4.90;99.90;;;;;;5017064;28;20371;-83
2023/01/31 00:50:43;;;;;;;11.27;2.53;;;4.90;99.90;;;;;;5005345;28;20060;-83
2023/01/31 00:53:09;;;;;;;17.58;3.75;;;4.90;99.90;;;;;;5023194;28;20045;-82
2023/01/31 00:55:36;;;;;;;20.20;2.78;;;4.90;99.90;;;;;;5023870;28;20629;-83
2023/01/31 00:58:02;;;;;;;13.30;2.67;;;4.90;99.90;;;;;;4992036;28;20060;-82
2023/01/31 01:00:28;;;;;;;16.73;2.83;;;5.00;99.90;;;;;;5017135;28;20382;-83
2023/01/31 01:02:54;;;;;;;14.05;2.72;;;4.90;99.90;;;;;;5024159;28;20486;-83
2023/01/31 01:05:20;;;;;;;21.08;2.88;;;4.90;99.90;;;;;;5016903;28;20091;-83
2023/01/31 01:07:45;;;;;;;19.38;2.90;;;5.00;99.90;;;;;;4990277;28;20045;-83
2023/01/31 01:10:11;;;;;;;16.48;2.90;;;5.00;99.90;;;;;;5023195;28;20995;-82
2023/01/31 01:12:38;;;;;;;17.20;2.92;;;5.00;99.90;;;;;;5006915;28;20059;-83
2023/01/31 01:15:04;;;;;;;16.38;2.88;;;5.00;99.90;;;;;;5036032;28;20049;-83
2023/01/31 01:17:30;;;;;;;13.52;3.03;;;5.00;99.90;;;;;;5007274;28;20406;-83
2023/01/31 01:19:56;;;;;;;13.98;2.50;;;5.00;99.90;;;;;;5025113;28;20066;-82
2023/01/31 01:22:21;;;;;;;12.10;2.75;;;5.10;99.90;;;;;;5020635;28;20056;-82
2023/01/31 01:24:47;;;;;;;14.80;2.50;;;5.10;99.90;;;;;;5036986;28;20287;-82
2023/01/31 01:27:13;;;;;;;19.42;2.83;;;5.10;99.90;;;;;;5017527;28;20053;-82
2023/01/31 01:29:39;;;;;;;12.38;2.30;;;5.10;99.90;;;;;;5024462;28;20524;-83
2023/01/31 01:32:06;;;;;;;17.02;2.70;;;5.10;99.90;;;;;;5024478;28;20057;-82
2023/01/31 01:34:34;;;;;;;12.82;2.60;;;5.10;99.90;;;;;;5035973;28;20052;-82
2023/01/31 01:37:00;;;;;;;10.05;2.30;;;5.20;99.90;;;;;;5043135;28;20162;-82
2023/01/31 01:39:28;;;;;;;18.25;2.28;;;5.20;99.90;;;;;;5023078;28;20053;-82
2023/01/31 01:41:55;;;;;;;10.52;2.28;;;5.20;99.90;;;;;;5017470;28;20049;-82
2023/01/31 01:45:20;;;;;;;12.45;2.72;;;5.20;99.90;;;;;;5043401;28;20045;-82
2023/01/31 01:47:52;;;;;;;9.13;2.40;;;5.20;99.90;;;;;;4980258;28;20057;-82
2023/01/31 01:50:33;;;;;;;15.55;2.60;;;5.20;99.90;;;;;;4969890;28;20376;-82
2023/01/31 01:53:11;;;;;;;10.57;2.55;;;5.20;99.90;;;;;;5024027;28;20099;-82
2023/01/31 01:55:44;;;;;;;15.27;2.72;;;5.20;99.90;;;;;;5016382;28;20084;-82
2023/01/31 01:58:35;;;;;;;11.38;2.38;;;5.20;99.90;;;;;;5016591;28;20049;-82
2023/01/31 02:01:04;;;;;;;17.35;2.97;;;5.10;99.90;;;;;;5034491;28;20064;-82
2023/01/31 02:03:30;;;;;;;12.35;2.60;;;5.10;99.90;;;;;;5014637;28;20048;-82
2023/01/31 02:06:00;;;;;;;10.57;2.22;;;5.10;99.90;;;;;;5036528;28;20509;-82
2023/01/31 02:08:30;;;;;;;16.77;2.60;;;5.00;99.90;;;;;;5022728;28;20107;-82
2023/01/31 02:11:27;;;;;;;17.85;3.15;;;5.00;99.90;;;;;;5035332;28;20045;-82
2023/01/31 02:14:01;;;;;;;18.35;3.47;;;5.00;99.90;;;;;;5012110;28;20538;-82
2023/01/31 02:16:27;;;;;;;11.95;3.30;;;5.40;99.90;;;;;;5016903;28;20049;-82
2023/01/31 02:18:53;;;;;;;19.73;3.55;;;;;;;;;;5034372;28;20045;-82
2023/01/31 02:21:57;;;;;;;16.30;3.90;;;5.10;99.90;;;;;;5036250;28;20052;-82
2023/01/31 02:25:05;;;;;;;21.00;3.50;;;5.00;99.90;;;;;;4975522;28;20077;-82
2023/01/31 02:27:43;;;;;;;;;;;5.10;99.90;;;;;;5027775;28;20057;-82
2023/01/31 02:30:17;;;;;;;26.85;5.40;;;5.10;99.90;;;;;;5015607;28;19929;-82
2023/01/31 02:33:15;;;;;;;28.60;4.85;;;5.10;99.90;;;;;;5037874;28;20601;-81
2023/01/31 02:36:18;;;;;;;22.23;4.60;;;5.10;99.90;;;;;;5017298;28;20223;-81
2023/01/31 02:39:04;;;;;;;23.65;4.18;;;5.30;99.90;;;;;;5030178;28;20061;-81
2023/01/31 02:41:49;;;;;;;26.25;4.10;;;5.30;99.90;;;;;;5014008;28;20083;-81
2023/01/31 02:47:29;;;;;;;24.92;4.65;;;5.30;99.90;;;;;;5038619;28;20053;-82
2023/01/31 02:50:16;;;;;;;26.75;4.25;;;5.10;99.90;;;;;;5033615;28;20624;-82
2023/01/31 02:53:14;;;;;;;27.90;4.57;;;5.10;99.90;;;;;;5038273;28;20128;-82
2023/01/31 02:56:13;;;;;;;19.05;4.10;;;5.20;99.90;;;;;;5043456;28;20064;-82
2023/01/31 02:58:42;;;;;;;22.70;3.78;;;5.30;99.90;;;;;;5021657;28;20049;-82
2023/01/31 03:01:14;;;;;;;23.88;4.55;;;5.20;99.90;;;;;;5032290;28;20049;-82
2023/01/31 03:03:40;;;;;;;24.23;5.35;;;5.10;99.90;;;;;;5023775;28;20057;-82
2023/01/31 03:06:13;;;;;;;23.92;4.40;;;5.10;99.90;;;;;;5022329;28;20069;-82
2023/01/31 03:08:43;;;;;;;27.38;5.00;;;5.30;99.90;;;;;;5048052;28;20045;-83
2023/01/31 03:11:08;;;;;;;27.40;4.63;;;5.40;99.90;;;;;;5033586;28;20503;-82
2023/01/31 03:13:58;;;;;;;32.03;4.47;;;5.30;99.90;;;;;;5008706;28;20072;-82
2023/01/31 03:19:35;;;;;;;21.73;4.28;;;5.40;99.90;;;;;;5035895;28;20049;-82
2023/01/31 03:22:10;;;;;;;27.67;4.30;;;5.40;99.90;;;;;;5019014;28;20499;-82
2023/01/31 03:24:38;;;;;;;22.02;4.53;;;5.40;99.90;;;;;;5025960;28;20067;-82
2023/01/31 03:27:04;;;;;;;18.20;3.70;;;5.70;99.90;;;;;;5043318;28;20049;-82
2023/01/31 03:29:35;;;;;;;18.13;3.85;;;5.50;99.90;;;;;;5019115;28;20057;-82
2023/01/31 03:32:26;;;;;;;26.40;4.82;;;5.40;99.90;;;;;;5025815;28;20048;-82
2023/01/31 03:34:53;;;;;;;30.88;4.40;;;5.40;99.90;;;;;;5021490;28;20096;-82
2023/01/31 03:37:37;;;;;;;24.08;5.15;;;5.40;99.90;;;;;;5024846;28;20045;-82
2023/01/31 03:40:16;;;;;;;22.95;4.88;;;5.40;99.90;;;;;;5023983;28;20048;-82
2023/01/31 03:42:56;;;;;;;27.35;4.53;;;5.40;99.90;;;;;;5064827;28;20048;-83
2023/01/31 03:45:40;;;;;;;21.85;4.55;;;5.50;99.90;;;;;;5022471;28;20041;-83
2023/01/31 03:48:13;;;;;;;24.25;4.43;;;5.50;99.90;;;;;;5022352;28;20052;-83
2023/01/31 03:50:43;;;;;;;23.58;4.00;;;5.40;99.90;;;;;;5036994;28;20093;-83
2023/01/31 03:53:31;;;;;;;24.05;4.82;;;5.40;99.90;;;;;;5041004;28;21562;-83
2023/01/31 03:56:16;;;;;;;21.85;3.92;;;5.40;99.90;;;;;;5037363;28;20061;-83
2023/01/31 03:58:47;;;;;;;24.88;4.63;;;5.40;99.90;;;;;;5042899;28;20040;-83
2023/01/31 04:01:15;;;;;;;24.45;4.35;;;5.40;99.90;;;;;;5024751;28;20053;-83
2023/01/31 04:03:46;;;;;;;18.77;4.40;;;5.40;99.90;;;;;;5036238;28;20090;-82
2023/01/31 04:06:12;;;;;;;27.75;5.10;;;5.40;99.90;;;;;;5034723;28;20126;-82
2023/01/31 04:08:38;;;;;;;28.70;4.57;;;5.40;99.90;;;;;;5007704;28;20486;-82
2023/01/31 04:11:07;;;;;;;22.98;4.32;;;5.40;99.90;;;;;;5033983;28;20045;-83
2023/01/31 04:13:34;;;;;;;24.27;4.30;;;5.40;99.90;;;;;;5027159;28;20049;-82
2023/01/31 04:16:00;;;;;;;25.85;4.40;;;5.40;99.90;;;;;;5017441;28;20077;-83
2023/01/31 04:18:25;;;;;;;24.63;4.07;;;5.40;99.90;;;;;;5026230;28;20073;-83
2023/01/31 04:20:51;;;;;;;26.48;4.70;;;5.40;99.90;;;;;;5019959;28;20044;-82
2023/01/31 04:23:17;;;;;;;21.45;4.80;;;5.40;99.90;;;;;;5035520;28;20976;-83
2023/01/31 04:25:44;;;;;;;23.75;4.13;;;5.40;99.90;;;;;;5008679;28;20214;-82
2023/01/31 04:28:10;;;;;;;28.02;4.22;;;5.40;99.90;;;;;;5034525;28;20502;-83
2023/01/31 04:30:36;;;;;;;22.00;4.47;;;5.40;99.90;;;;;;5025196;28;20049;-83
2023/01/31 04:33:02;;;;;;;24.55;4.03;;;5.40;99.90;;;;;;5026972;28;20507;-83
2023/01/31 04:35:28;;;;;;;23.15;4.50;;;5.40;99.90;;;;;;5035266;28;20079;-82
2023/01/31 04:37:54;;;;;;;21.67;4.03;;;5.40;99.90;;;;;;5018007;28;20639;-83
2023/01/31 04:40:20;;;;;;;31.33;4.93;;;5.40;99.90;;;;;;5035637;28;20087;-83
2023/01/31 04:42:46;;;;;;;19.10;4.78;;;5.40;99.90;;;;;;5016867;28;20247;-82
2023/01/31 04:45:12;;;;;;;18.33;3.97;;;4.90;99.90;;;;;;5025609;28;20124;-83
2023/01/31 04:47:38;;;;;;;29.80;4.65;;;5.40;99.90;;;;;;5034346;28;20059;-83
2023/01/31 04:50:04;;;;;;;25.55;5.05;;;5.40;99.90;;;;;;5032661;28;20049;-83
2023/01/31 04:52:30;;;;;;;26.35;4.30;;;5.40;99.90;;;;;;5033333;28;20045;-82
2023/01/31 04:54:56;;;;;;;27.38;4.88;;;5.50;99.90;;;;;;5034663;28;20106;-82
2023/01/31 04:57:22;;;;;;;20.08;4.18;;;5.50;99.90;;;;;;5025528;28;20045;-82
2023/01/31 04:59:49;;;;;;;22.40;3.90;;;4.60;99.90;;;;;;5033422;28;20071;-82
2023/01/31 05:02:16;;;;;;;23.92;4.18;;;5.50;99.90;;;;;;5008067;28;20052;-82
2023/01/31 05:04:42;;;;;;;24.73;4.43;;;5.40;99.90;;;;;;5015819;28;20406;-82
2023/01/31 05:07:08;;;;;;;23.98;3.83;;;5.50;99.90;;;;;;5018236;28;20049;-82
2023/01/31 05:09:34;;;;;;;18.35;3.90;;;5.50;99.90;;;;;;5005986;28;20044;-82
2023/01/31 05:11:59;;;;;;;24.58;4.78;;;5.50;99.90;;;;;;5035177;28;20072;-82
2023/01/31 05:14:26;;;;;;;31.10;5.03;;;5.50;99.90;;;;;;5025136;28;20049;-82
2023/01/31 05:16:52;;;;;;;19.88;4.80;;;5.70;99.90;;;;;;5018200;28;20052;-81
2023/01/31 05:19:17;;;;;;;21.00;4.03;;;5.70;99.90;;;;;;5016685;28;20752;-80
2023/01/31 05:21:57;;;;;;;25.63;4.85;;;5.60;99.90;;;;;;5024129;28;20045;-82
2023/01/31 05:24:28;;;;;;;20.40;4.35;;;6.00;99.90;;;;;;5024355;28;20556;-83
2023/01/31 05:26:57;;;;;;;26.70;5.63;;;5.60;99.90;;;;;;5034151;28;20407;-83
2023/01/31 05:29:31;;;;;;;23.15;4.30;;;5.80;99.90;;;;;;5018087;28;20134;-82
2023/01/31 05:31:58;;;;;;;28.27;5.00;;;5.70;99.90;;;;;;5034352;28;20628;-82
2023/01/31 05:34:25;;;;;;;18.95;4.25;;;5.70;99.90;;;;;;5016244;28;20049;-81
2023/01/31 05:36:51;;;;;;;26.02;5.43;;;5.60;99.90;;;;;;5050856;28;20057;-81
2023/01/31 05:39:18;;;;;;;25.33;4.13;;;5.60;99.90;;;;;;5016827;28;20060;-81
2023/01/31 05:41:44;;;;;;;21.35;4.90;;;5.70;99.90;;;;;;5025248;28;20049;-81
2023/01/31 05:44:10;;;;;;;19.05;4.25;;;5.70;99.90;;;;;;5009099;28;20107;-82
2023/01/31 05:46:37;;;;;;;17.23;4.72;;;5.80;99.90;;;;;;5034583;28;20128;-82
2023/01/31 05:49:03;;;;;;;23.65;4.43;;;5.80;99.90;;;;;;5027788;28;20049;-81
2023/01/31 05:51:32;;;;;;;15.65;4.18;;;6.10;99.90;;;;;;5028676;28;20206;-81
2023/01/31 05:53:58;;;;;;;19.10;4.32;;;6.30;99.90;;;;;;5018616;28;20045;-82
2023/01/31 05:56:24;;;;;;;19.83;3.67;;;5.70;99.90;;;;;;5018382;28;20049;-82
2023/01/31 05:58:50;;;;;;;23.73;4.07;;;5.80;99.90;;;;;;5044879;28;20040;-82
2023/01/31 06:01:21;;;;;;;21.63;3.90;;;4.70;99.90;;;;;;5037003;28;20502;-82
2023/01/31 06:03:47;;;;;;;23.27;3.60;;;5.80;99.90;;;;;;5034180;28;20049;-82
2023/01/31 06:06:13;;;;;;;15.43;3.47;;;5.90;99.90;;;;;;5022691;28;20847;-81
2023/01/31 06:08:40;;;;;;;19.50;3.58;;;5.80;99.90;;;;;;5006763;28;20156;-81
2023/01/31 06:11:07;;;;;;;13.02;3.00;;;5.80;99.90;;;;;;5018120;28;20073;-81
2023/01/31 06:13:33;;;;;;;17.17;3.13;;;5.80;99.90;;;;;;5006078;28;20037;-82
2023/01/31 06:15:59;;;;;;;12.93;3.25;;;5.80;99.90;;;;;;5035342;28;20940;-82
2023/01/31 06:18:25;;;;;;;11.82;2.90;;;5.80;99.90;;;;;;5033512;28;20064;-82
2023/01/31 06:20:52;;;;;;;17.88;2.80;;;5.80;99.90;;;;;;5021336;28;20045;-82
2023/01/31 06:23:18;;;;;;;15.02;3.55;;;5.80;99.90;;;;;;5039955;28;20049;-82
2023/01/31 06:25:49;;;;;;;22.85;3.50;;;5.80;99.90;;;;;;5033214;28;20045;-83
2023/01/31 06:28:15;;;;;;;19.20;3.08;;;5.80;99.90;;;;;;5015646;28;20241;-83
2023/01/31 06:30:41;;;;;;;20.40;3.17;;;5.80;99.90;;;;;;5032939;28;20486;-82
2023/01/31 06:33:07;;;;;;;17.42;3.25;;;5.80;99.90;;;;;;5018759;28;20469;-82
2023/01/31 06:35:33;;;;;;;21.13;3.65;;;5.70;99.90;;;;;;5033686;28;20143;-83
2023/01/31 06:37:59;;;;;;;17.95;3.45;;;5.70;99.90;;;;;;5033980;28;20247;-83
2023/01/31 06:40:25;;;;;;;15.13;3.13;;;5.70;99.90;;;;;;5032251;28;20386;-83
2023/01/31 06:42:50;;;;;;;18.55;3.92;;;5.70;99.90;;;;;;5022003;28;20053;-83
2023/01/31 06:45:16;;;;;;;26.10;3.65;;;5.70;99.90;;;;;;5031585;28;20045;-83
2023/01/31 06:47:44;;;;;;;16.77;3.17;;;5.70;99.90;;;;;;5016838;28;21841;-83
2023/01/31 06:50:10;;;;;;;25.42;3.65;;;5.60;99.90;;;;;;5037906;28;20048;-83
2023/01/31 06:52:36;;;;;;;20.58;3.10;;;5.60;99.90;;;;;;5023246;28;20063;-83
2023/01/31 06:55:02;;;;;;;17.77;3.45;;;5.80;99.90;;;;;;5023897;28;20173;-83
2023/01/31 06:57:28;;;;;;;15.23;2.67;;;5.70;99.90;;;;;;5011275;28;20510;-83
2023/01/31 06:59:54;;;;;;;22.25;3.78;;;5.60;99.90;;;;;;5037596;28;20048;-83
2023/01/31 07:02:20;;;;;;;18.77;3.08;;;5.50;99.90;;;;;;5011368;28;20052;-85
2023/01/31 07:04:46;;;;;;;18.40;3.33;;;4.80;99.90;;;;;;5055467;28;20049;-85
2023/01/31 07:07:12;;;;;;;20.17;3.60;;;5.60;99.90;;;;;;5019809;28;20037;-83
2023/01/31 07:09:37;;;;;;;21.35;3.38;;;5.40;99.90;;;;;;5021041;28;20051;-83
2023/01/31 07:12:03;;;;;;;20.73;3.65;;;5.70;99.90;;;;;;5051013;28;20049;-82
2023/01/31 07:14:29;;;;;;;18.00;3.65;;;5.60;99.90;;;;;;5021125;28;20056;-83
2023/01/31 07:16:55;;;;;;;17.85;3.85;;;5.60;99.90;;;;;;5019637;28;20048;-82
2023/01/31 07:19:21;;;;;;;18.13;3.13;;;5.60;99.90;;;;;;5023360;28;20049;-83
2023/01/31 07:21:48;;;;;;;14.27;2.95;;;5.60;99.90;;;;;;5036667;28;20107;-83
2023/01/31 07:24:14;;;;;;;25.88;5.15;;;5.60;99.90;;;;;;5037125;28;20045;-82
2023/01/31 07:26:41;;;;;;;22.95;3.75;;;5.60;99.90;;;;;;5054653;28;20474;-82
2023/01/31 07:29:07;;;;;;;21.50;3.95;;;5.80;99.90;;;;;;5035922;28;20068;-84
2023/01/31 07:31:33;;;;;;;21.02;3.47;;;5.90;99.90;;;;;;5035220;28;20419;-86
2023/01/31 07:33:59;;;;;;;21.52;4.28;;;5.80;99.90;;;;;;5044767;28;20037;-89
2023/01/31 07:36:25;;;;;;;26.05;4.07;;;5.70;99.90;;;;;;5021551;28;20140;-87
2023/01/31 07:38:59;;;;;;;17.20;3.25;;;5.70;99.90;;;;;;5011167;28;20531;-87
2023/01/31 07:41:27;;;;;;;22.33;3.77;;;5.90;99.90;;;;;;5026244;28;20059;-87
2023/01/31 07:43:53;;;;;;;23.00;4.07;;;5.50;99.90;;;;;;5026023;28;20050;-86
2023/01/31 07:46:20;;;;;;;25.25;3.95;;;6.90;99.90;;;;;;5041242;28;20039;-86
2023/01/31 07:48:46;;;;;;;25.38;4.03;;;5.70;99.90;;;;;;5023793;28;20140;-84
2023/01/31 07:51:12;;;;;;;20.38;3.60;;;5.80;99.90;;;;;;5043499;28;20148;-82
2023/01/31 07:53:40;;;;;;;22.58;3.55;;;5.80;99.90;;;;;;5051149;28;20053;-83
2023/01/31 07:56:15;;;;;;;18.50;3.72;;;5.80;99.90;;;;;;5049439;28;20045;-82
2023/01/31 07:58:42;;;;;;;26.35;4.28;;;5.80;99.90;;;;;;5023875;28;20378;-83
2023/01/31 08:04:00;;;;;;;22.80;4.50;;;5.80;99.90;;;;;;5051491;28;20682;-83
2023/01/31 08:06:29;;;;;;;22.48;3.95;;;5.80;99.90;;;;;;5035667;28;20061;-83
2023/01/31 08:08:55;;;;;;;30.05;4.53;;;6.20;99.90;;;;;;5048994;28;20505;-83
2023/01/31 08:11:20;;;;;;;25.02;4.68;;;5.80;99.90;;;;;;5025628;28;20041;-83
2023/01/31 08:13:46;;;;;;;24.95;4.00;;;5.90;99.90;;;;;;5026225;28;20045;-82
2023/01/31 08:16:12;;;;;;;23.33;4.30;;;5.90;99.90;;;;;;5035257;28;20126;-81
2023/01/31 08:18:38;;;;;;;20.95;4.30;;;6.00;99.90;;;;;;5023475;28;20132;-81
2023/01/31 08:21:05;;;;;;;24.88;3.90;;;5.90;99.90;;;;;;5040745;28;20045;-81
2023/01/31 08:23:31;;;;;;;29.63;4.03;;;6.00;99.90;;;;;;5036566;28;20123;-82
2023/01/31 08:26:07;;;;;;;25.60;4.55;;;6.00;99.90;;;;;;5042115;28;20084;-82
2023/01/31 08:28:33;;;;;;;24.33;4.43;;;6.00;99.90;;;;;;5041363;28;20056;-82
2023/01/31 08:30:59;;;;;;;21.92;3.70;;;6.00;99.90;;;;;;5025557;28;20089;-82
2023/01/31 08:33:25;;;;;;;31.73;5.13;;;6.00;99.90;;;;;;5051963;28;20076;-82
2023/01/31 08:35:50;;;;;;;19.40;5.30;;;6.10;99.90;;;;;;5020340;28;20057;-82
2023/01/31 08:38:16;;;;;;;29.65;4.50;;;6.00;99.90;;;;;;5035410;28;20482;-82
2023/01/31 08:40:42;;;;;;;24.40;4.68;;;6.00;99.90;;;;;;5008884;28;20056;-81
2023/01/31 08:43:08;;;;;;;23.60;4.65;;;6.10;99.90;;;;;;5018975;28;20167;-82
2023/01/31 08:45:35;;;;;;;29.00;4.10;;;6.10;99.90;;;;;;5037652;28;20131;-81
2023/01/31 08:48:02;;;;;;;23.88;3.72;;;6.00;99.90;;;;;;5009919;28;20093;-82
2023/01/31 08:50:30;;;;;;;21.77;4.32;;;6.10;99.90;;;;;;5043977;28;20037;-81
2023/01/31 08:52:59;;;;;;;22.75;4.75;;;6.10;99.90;;;;;;5027224;28;20049;-82
2023/01/31 08:55:25;;;;;;;30.05;4.10;;;6.10;99.90;;;;;;5036935;28;20151;-82
2023/01/31 08:57:52;;;;;;;14.02;3.25;;;6.10;99.90;;;;;;5018727;28;20064;-81
2023/01/31 09:00:19;;;;;;;24.73;4.57;;;6.10;99.90;;;;;;5026516;28;20136;-83
2023/01/31 09:02:54;;;;;;;23.25;4.60;;;6.10;99.90;;;;;;5019323;28;20502;-81
2023/01/31 09:05:21;;;;;;;29.98;4.72;;;6.20;99.90;;;;;;5042100;28;20081;-82
2023/01/31 09:07:46;;;;;;;32.35;5.07;;;6.20;99.90;;;;;;5018183;28;20120;-82
2023/01/31 09:10:12;;;;;;;28.38;4.60;;;6.20;99.90;;;;;;5035355;28;20558;-82
2023/01/31 09:12:38;;;;;;;27.48;4.70;;;6.20;99.90;;;;;;5028695;28;20102;-81
2023/01/31 09:15:04;;;;;;;29.25;4.20;;;6.10;99.90;;;;;;5057995;28;20117;-83
2023/01/31 09:17:30;;;;;;;23.55;4.10;;;6.20;99.90;;;;;;5004914;28;20825;-82
2023/01/31 09:19:56;;;;;;;25.02;4.70;;;6.20;99.90;;;;;;5040537;28;20055;-81
2023/01/31 09:22:22;;;;;;;23.50;4.88;;;6.20;99.90;;;;;;5031530;28;20764;-83
2023/01/31 09:24:48;;;;;;;21.20;3.97;;;6.20;99.90;;;;;;5030832;28;20136;-83
2023/01/31 09:27:14;;;;;;;25.77;4.43;;;6.20;99.90;;;;;;5024232;28;20599;-85
2023/01/31 09:29:40;;;;;;;19.15;3.60;;;6.20;99.90;;;;;;5028733;28;20057;-88
2023/01/31 09:32:06;;;;;;;21.45;4.65;;;6.20;99.90;;;;;;5045936;28;20059;-86
2023/01/31 09:34:32;;;;;;;20.45;4.18;;;6.10;99.90;;;;;;5029902;28;20084;-86
2023/01/31 09:36:58;;;;;;;16.80;4.03;;;6.10;99.90;;;;;;5021969;28;20092;-86
2023/01/31 09:39:24;;;;;;;16.48;3.35;;;6.10;99.90;;;;;;5019581;28;20320;-86
2023/01/31 09:42:00;;;;;;;17.05;4.35;;;6.10;99.90;;;;;;5037728;28;20049;-86
2023/01/31 09:44:33;;;;;;;17.63;3.55;;;6.20;99.90;;;;;;5038667;28;20524;-87
2023/01/31 09:47:15;;;;;;;20.92;4.05;;;6.10;99.90;;;;;;5025832;28;20798;-85
2023/01/31 09:50:10;;;;;;;16.05;3.33;;;5.10;99.90;;;;;;5021065;28;20096;-81
2023/01/31 09:52:37;;;;;;;21.42;3.90;;;6.30;99.90;;;;;;5023717;28;20631;-82
2023/01/31 09:55:07;;;;;;;21.70;3.70;;;6.20;99.90;;;;;;5033949;28;20052;-84
2023/01/31 09:58:15;;;;;;;29.00;4.28;;;6.20;99.90;;;;;;5037422;28;20048;-83
2023/01/31 10:01:10;;;;;;;24.70;3.63;;;6.30;99.90;;;;;;5028839;28;20079;-84
2023/01/31 10:04:06;;;;;;;23.20;3.72;;;6.30;99.90;;;;;;5018976;28;20094;-83
2023/01/31 10:06:49;;;;;;;17.98;3.53;;;6.40;99.90;;;;;;5032150;28;20045;-83
2023/01/31 10:09:34;;;;;;;25.45;4.05;;;6.40;99.90;;;;;;5061720;28;20120;-82
2023/01/31 10:12:24;;;;;;;25.23;4.05;;;6.40;99.90;;;;;;5039889;28;20519;-83
2023/01/31 10:14:57;;;;;;;22.95;3.85;;;6.50;99.90;;;;;;5048598;28;20053;-87
2023/01/31 10:17:43;;;;;;;18.13;3.53;;;6.50;99.90;;;;;;5022278;28;20049;-83
2023/01/31 10:20:48;;;;;;;15.63;3.65;;;6.50;99.90;;;;;;5041491;28;20049;-87
2023/01/31 10:23:29;;;;;;;15.20;3.35;;;6.60;99.90;;;;;;4989918;28;20101;-87
2023/01/31 10:26:07;;;;;;;21.75;3.88;;;6.60;99.90;;;;;;4992734;28;20507;-86
2023/01/31 10:28:37;;;;;;;15.77;3.20;;;6.60;99.90;;;;;;5031901;28;20045;-81
2023/01/31 10:31:16;;;;;;;17.23;3.20;;;6.80;99.90;;;;;;5037638;28;20239;-82
2023/01/31 10:33:52;;;;;;;21.35;3.88;;;6.70;99.90;;;;;;5046777;28;20621;-82
2023/01/31 10:36:24;;;;;;;21.75;3.90;;;6.80;99.90;;;;;;5020710;28;20110;-82
2023/01/31 10:38:52;;;;;;;25.63;4.05;;;6.80;99.90;;;;;;5037182;28;20548;-82
2023/01/31 10:41:30;;;;;;;15.43;3.70;;;6.90;99.90;;;;;;5038213;28;20080;-82
2023/01/31 10:44:09;;;;;;;14.15;3.78;;;6.90;99.90;;;;;;5040282;28;20046;-84
2023/01/31 10:46:35;;;;;;;20.25;3.90;;;6.90;99.90;;;;;;5027254;28;20068;-86
2023/01/31 10:49:02;;;;;;;13.27;3.00;;;7.10;99.90;;;;;;5010938;28;20044;-87
2023/01/31 10:52:00;;;;;;;19.98;4.38;;;7.00;99.90;;;;;;5023377;28;20052;-86
2023/01/31 10:54:58;;;;;;;16.90;3.78;;;7.00;99.90;;;;;;5041447;28;20049;-86
2023/01/31 10:57:24;;;;;;;20.30;4.00;;;7.30;99.90;;;;;;5031302;28;20074;-86
2023/01/31 10:59:52;;;;;;;15.82;3.80;;;7.10;99.90;;;;;;5023962;28;20048;-82
2023/01/31 11:02:28;;;;;;;21.80;3.58;;;7.20;99.90;;;;;;5041144;28;20784;-83
2023/01/31 11:04:58;;;;;;;17.88;3.47;;;7.30;99.90;;;;;;5038366;28;20049;-82
2023/01/31 11:07:29;;;;;;;14.35;3.20;;;7.30;99.90;;;;;;5044699;28;20071;-82
2023/01/31 11:09:57;;;;;;;18.27;3.80;;;7.30;99.90;;;;;;5037492;28;20045;-81
2023/01/31 11:12:42;;;;;;;18.65;3.90;;;7.30;99.90;;;;;;5008527;28;20135;-82
2023/01/31 11:15:28;;;;;;;17.20;3.40;;;7.30;99.90;;;;;;5024034;28;20073;-82
2023/01/31 11:17:59;;;;;;;18.70;3.28;;;7.30;99.90;;;;;;5037805;28;20092;-83
2023/01/31 11:20:35;;;;;;;17.77;3.42;;;7.50;99.90;;;;;;5028584;28;20064;-82
2023/01/31 11:23:03;;;;;;;;;;;7.50;99.90;;;;;;5027973;28;20103;-82
2023/01/31 11:25:30;;;;;;;24.52;3.47;;;7.50;99.90;;;;;;5045058;28;20286;-82
2023/01/31 11:28:02;;;;;;;18.35;4.15;;;7.80;99.90;;;;;;5021061;28;20120;-82
2023/01/31 11:30:31;;;;;;;21.25;4.53;;;7.60;99.90;;;;;;5035343;28;20584;-83
2023/01/31 11:32:57;;;;;;;22.55;4.05;;;7.70;99.90;;;;;;5027141;28;20429;-82
2023/01/31 11:35:32;;;;;;;17.60;3.67;;;7.60;99.90;;;;;;5041283;28;20402;-82
2023/01/31 11:38:19;;;;;;;20.52;3.47;;;7.60;99.90;;;;;;5044800;28;20065;-82
2023/01/31 11:40:45;;;;;;;21.20;3.72;;;7.70;99.90;;;;;;5021432;28;20052;-82
2023/01/31 11:43:23;;;;;;;17.10;3.60;;;7.90;99.90;;;;;;5021110;28;20057;-82
2023/01/31 11:46:02;;;;;;;21.83;3.92;;;7.80;99.90;;;;;;5036496;28;20052;-83
2023/01/31 11:48:41;;;;;;;14.52;3.70;;;7.80;99.90;;;;;;5044607;28;20041;-82
2023/01/31 11:51:08;;;;;;;15.68;3.35;;;7.80;99.90;;;;;;5027814;28;20052;-82
2023/01/31 11:53:44;;;;;;;17.77;3.65;;;7.80;99.90;;;;;;5043860;28;20048;-82
2023/01/31 11:56:29;;;;;;;21.75;4.10;;;7.80;99.90;;;;;;5025580;28;20049;-82
2023/01/31 11:59:04;;;;;;;14.57;3.33;;;7.80;99.90;;;;;;5044381;28;20574;-82
2023/01/31 12:01:31;;;;;;;17.10;3.10;;;7.80;99.90;;;;;;5025764;28;20107;-82
2023/01/31 12:04:03;;;;;;;15.65;3.78;;;7.80;99.90;;;;;;5020745;28;20053;-82
2023/01/31 12:06:33;;;;;;;24.30;3.67;;;7.90;99.90;;;;;;5043713;28;20183;-81
2023/01/31 12:09:03;;;;;;;15.18;3.45;;;8.00;99.90;;;;;;5054962;28;20045;-82
2023/01/31 12:11:34;;;;;;;19.65;3.17;;;8.10;99.90;;;;;;5034979;28;20080;-82
2023/01/31 12:14:01;;;;;;;19.20;3.65;;;8.10;99.90;;;;;;5028458;28;20518;-82
2023/01/31 12:16:29;;;;;;;11.70;3.22;;;8.20;99.90;;;;;;5045498;28;20046;-82
2023/01/31 12:19:03;;;;;;;21.40;3.88;;;8.20;99.90;;;;;;5027901;28;20053;-82
2023/01/31 12:21:43;;;;;;;21.13;3.97;;;8.20;99.90;;;;;;5019266;28;20059;-82
2023/01/31 12:24:25;;;;;;;20.17;3.97;;;8.20;99.90;;;;;;5025070;28;20096;-81
2023/01/31 12:27:04;;;;;;;20.00;4.53;;;8.20;99.90;;;;;;5035774;28;20049;-81
2023/01/31 12:29:51;;;;;;;12.07;2.67;;;8.30;99.90;;;;;;5024618;28;20057;-82
2023/01/31 12:32:53;;;;;;;19.15;3.58;;;8.30;99.90;;;;;;5042877;28;20056;-81
2023/01/31 12:35:41;;;;;;;14.02;3.17;;;8.40;99.90;;;;;;5024513;28;20060;-81
2023/01/31 12:38:39;;;;;;;20.27;3.78;;;8.40;99.90;;;;;;5027718;28;20626;-83
2023/01/31 12:41:29;;;;;;;17.48;3.88;;;8.40;99.90;;;;;;5034106;28;20056;-81
2023/01/31 12:44:42;;;;;;;15.68;3.80;;;8.40;99.90;;;;;;5041145;28;20071;-81
2023/01/31 12:47:23;;;;;;;22.02;3.40;;;8.40;99.90;;;;;;5026529;28;20065;-81
2023/01/31 12:50:04;;;;;;;15.80;3.58;;;8.30;99.90;;;;;;5037116;28;20053;-81
2023/01/31 12:52:48;;;;;;;22.35;4.45;;;8.20;99.90;;;;;;5026203;28;20544;-81
2023/01/31 12:55:17;;;;;;;15.55;3.67;;;8.10;99.90;;;;;;5034773;28;20514;-81
2023/01/31 12:58:28;;;;;;;22.58;3.83;;;8.10;99.90;;;;;;5028260;28;20124;-81
2023/01/31 13:00:56;;;;;;;23.77;4.18;;;8.10;99.90;;;;;;5015226;28;20388;-81
2023/01/31 13:03:40;;;;;;;20.60;3.90;;;8.10;99.90;;;;;;5035531;28;20152;-81
2023/01/31 13:06:14;;;;;;;21.02;3.63;;;8.10;99.90;;;;;;5038088;28;20187;-81
2023/01/31 13:08:45;;;;;;;16.77;3.20;;;7.30;99.90;;;;;;5037470;28;20057;-81
2023/01/31 13:11:14;;;;;;;21.48;3.53;;;8.20;99.90;;;;;;5036306;28;20418;-81
2023/01/31 13:13:58;;;;;;;14.90;3.58;;;8.20;99.90;;;;;;5035600;28;20049;-81
2023/01/31 13:16:36;;;;;;;24.52;3.33;;;8.40;99.90;;;;;;5024822;28;20045;-81
2023/01/31 13:19:11;;;;;;;13.88;2.90;;;7.20;99.90;;;;;;5017986;28;20094;-82
2023/01/31 13:21:44;;;;;;;14.93;3.53;;;8.60;99.90;;;;;;5041544;28;20131;-82